Weather at University Oxford Airport

Public forecast

Using degrees Fahrenheit for public forecast. Weather courtesy of forecast.io.

Current aviation weather report (METAR) for University Oxford Airport

Retrieved 2020/10/01 04:35 UTC (0 seconds ago):

KUOX 010435Z AUTO 21004KT 10SM CLR 17/11 A3004 RMK AO2 PWINO

Closest aviation forecast (TAF) to University Oxford Airport

Closest forecast is Tupelo Regional Airport, 38.7 nm (71.6 km) E. Retrieved 2020-10-01 00:36 UTC (4 hours ago):

TAF KTUP 302335Z 0100/0124 22008KT P6SM SKC FM011000 36005KT P6SM SKC FM011600 03008KT P6SM SKC FM011900 36012G18KT P6SM SKC